National City (44) Station Data

Red Flag Warning: No
Fire Weather Zone: 243
SDGE Region: Metro
Lat/Lon: 32.654/-117.097

Observations

Time Wind Speed/Gust Temp(F) RH Fuel Moist Fuel Temp(F) Dewpt(F) Tmax(F) Tmin(F) Accum Precip 10-min Precip SL Press(mb)
4/29 11:50pm 88 2 G 3 65° 33% - - 34° 78.7° 53.2° - - -
4/29 11:40pm 47 1 G 2 65° 28% - - 31° 78.7° 53.2° - - -
4/29 11:30pm 331 2 G 3 66° 27% - - 31° 78.7° 53.2° - - -
4/29 11:20pm 348 1 G 2 65° 28% - - 32° 78.7° 53.2° - - -
4/29 11:10pm 39 2 G 4 66° 28% - - 32° 78.7° 53.2° - - -
4/29 11:00pm 9 1 G 3 67° 26% - - 30° 78.7° 53.2° - - -
4/29 10:50pm 26 1 G 2 68° 24% - - 30° 78.7° 53.2° - - -
4/29 10:40pm 341 0 G 1 67° 25% - - 31° 78.7° 53.2° - - -
4/29 10:30pm 40 2 G 3 68° 25% - - 31° 78.7° 53.2° - - -
4/29 10:20pm 38 3 G 5 68° 26% - - 32° 78.7° 53.2° - - -
4/29 10:10pm 57 3 G 4 68° 26% - - 32° 78.7° 53.2° - - -
4/29 10:00pm 57 4 G 6 69° 26% - - 32° 78.7° 53.2° - - -
4/29 9:50pm 53 3 G 5 69° 26% - - 33° 78.7° 53.2° - - -
4/29 9:40pm 31 3 G 6 69° 26% - - 33° 78.7° 53.2° - - -
4/29 9:30pm 19 5 G 8 70° 26% - - 33° 78.7° 53.2° - - -
4/29 9:20pm 30 5 G 11 70° 26% - - 34° 78.7° 53.2° - - -
4/29 9:10pm 17 4 G 10 70° 26% - - 34° 78.7° 53.2° - - -
4/29 9:00pm 7 5 G 10 71° 26% - - 34° 78.7° 53.2° - - -
4/29 8:50pm 7 4 G 8 71° 28% - - 36° 78.7° 53.2° - - -
4/29 8:40pm 6 5 G 9 71° 28% - - 36° 78.7° 53.2° - - -
4/29 8:30pm 355 4 G 8 71° 27% - - 36° 78.7° 53.2° - - -
4/29 8:20pm 349 3 G 7 72° 23% - - 32° 78.7° 53.2° - - -
4/29 8:10pm 343 3 G 7 72° 21% - - 30° 78.7° 53.2° - - -
4/29 8:00pm 347 3 G 6 72° 20% - - 29° 78.7° 53.2° - - -
4/29 7:50pm 353 4 G 8 73° 20% - - 29° 78.7° 53.2° - - -
4/29 7:40pm 358 4 G 9 74° 19% - - 28° 78.7° 53.2° - - -
4/29 7:30pm 338 4 G 10 74° 17% - - 27° 78.7° 53.2° - - -
4/29 7:20pm 340 5 G 9 75° 16% - - 26° 78.7° 53.2° - - -
4/29 7:10pm 335 5 G 9 75° 16% - - 26° 78.7° 53.2° - - -
4/29 7:00pm 298 4 G 7 75° 19% - - 30° 78.7° 53.2° - - -
4/29 6:50pm 293 5 G 10 75° 21% - - 32° 78.7° 53.2° - - -
4/29 6:40pm 285 6 G 10 75° 21% - - 32° 78.7° 53.2° - - -
4/29 6:30pm 283 7 G 11 75° 22% - - 33° 78.7° 53.2° - - -
4/29 6:20pm 290 6 G 12 75° 23% - - 34° 78.7° 53.2° - - -
4/29 6:10pm 303 7 G 14 74° 23% - - 35° 78.7° 53.2° - - -
4/29 6:00pm 290 9 G 16 74° 25% - - 36° 78.7° 53.2° - - -
4/29 5:50pm 295 8 G 14 75° 23% - - 35° 78.7° 53.2° - - -
4/29 5:40pm 288 9 G 14 75° 22% - - 34° 78.7° 53.2° - - -
4/29 5:30pm 283 10 G 16 75° 20% - - 31° 78.7° 53.2° - - -
4/29 5:20pm 288 10 G 15 76° 16% - - 26° 78.7° 53.2° - - -
4/29 5:10pm 292 8 G 14 77° 14% - - 24° 78.7° 53.2° - - -
4/29 5:00pm 295 8 G 13 77° 14% - - 24° 78.7° 53.2° - - -
4/29 4:50pm 293 6 G 11 78° 15% - - 26° 78.7° 53.2° - - -
4/29 4:40pm 285 8 G 13 76° 17% - - 29° 78.7° 53.2° - - -
4/29 4:30pm 278 9 G 14 76° 16% - - 28° 78.7° 53.2° - - -
4/29 4:20pm 286 9 G 16 76° 17% - - 28° 78.7° 53.2° - - -
4/29 4:10pm 278 10 G 16 76° 16% - - 27° 78.7° 53.2° - - -
4/29 4:00pm 275 9 G 17 77° 17% - - 29° 78.7° 53.2° - - -
4/29 3:50pm 279 9 G 16 77° 17% - - 29° 78.7° 53.2° - - -
4/29 3:40pm 271 10 G 16 76° 19% - - 30° 78.7° 53.2° - - -
4/29 3:30pm 279 12 G 18 75° 22% - - 33° 78.7° 53.2° - - -
4/29 3:20pm 286 12 G 17 75° 21% - - 33° 78.7° 53.2° - - -
4/29 3:10pm 285 11 G 16 76° 20% - - 32° 78.7° 53.2° - - -
4/29 3:00pm 276 9 G 16 77° 21% - - 34° 78.7° 53.2° - - -
4/29 2:50pm 268 9 G 15 77° 19% - - 32° 78.7° 53.2° - - -
4/29 2:40pm 280 9 G 16 77° 19% - - 31° 78.7° 53.2° - - -
4/29 2:30pm 264 9 G 14 77° 18% - - 31° 78.7° 53.2° - - -
4/29 2:20pm 283 9 G 13 77° 17% - - 29° 78.7° 53.2° - - -
4/29 2:10pm 275 10 G 16 77° 18% - - 30° 78.3° 53.2° - - -
4/29 2:00pm 281 10 G 17 77° 16% - - 28° 78.3° 53.2° - - -
4/29 1:50pm 276 11 G 18 77° 15% - - 26° 78.3° 53.2° - - -
4/29 1:40pm 276 9 G 15 77° 15% - - 26° 78.3° 53.2° - - -
4/29 1:30pm 282 11 G 17 76° 14% - - 23° 77.8° 53.2° - - -
4/29 1:20pm 285 10 G 17 76° 14% - - 23° 77.8° 53.2° - - -
4/29 1:10pm 277 11 G 19 76° 13% - - 22° 77.8° 53.2° - - -
4/29 1:00pm 277 10 G 16 77° 13% - - 22° 77.8° 53.2° - - -
4/29 12:50pm 279 10 G 17 76° 13% - - 22° 77.8° 53.2° - - -
4/29 12:40pm 275 11 G 17 76° 15% - - 25° 77.5° 53.2° - - -
4/29 12:30pm 283 11 G 16 75° 15% - - 24° 77.4° 53.2° - - -
4/29 12:20pm 280 13 G 17 74° 16% - - 25° 77.4° 53.2° - - -
4/29 12:10pm 282 11 G 17 75° 17% - - 27° 77.4° 53.2° - - -
4/29 12:00pm 286 9 G 16 76° 18% - - 29° 77.4° 53.2° - - -
4/29 11:50am 282 10 G 15 75° 15% - - 24° 77.4° 53.2° - - -
4/29 11:40am 286 8 G 13 76° 15% - - 24° 77.4° 53.2° - - -
4/29 11:30am 270 8 G 14 76° 15% - - 25° 77.1° 53.2° - - -
4/29 11:20am 268 9 G 14 75° 16% - - 26° 76.5° 53.2° - - -
4/29 11:10am 272 8 G 13 75° 14% - - 23° 76.5° 53.2° - - -
4/29 11:00am 270 7 G 11 75° 14% - - 23° 76.2° 53.2° - - -
4/29 10:50am 268 7 G 12 75° 15% - - 24° 75.7° 53.2° - - -
4/29 10:40am 269 7 G 10 75° 16% - - 26° 75.7° 53.2° - - -
4/29 10:30am 278 6 G 10 74° 18% - - 28° 75.1° 53.2° - - -
4/29 10:20am 273 6 G 11 73° 17% - - 26° 74.2° 53.2° - - -
4/29 10:10am 275 7 G 10 73° 16% - - 23° 73.6° 53.2° - - -
4/29 10:00am 279 5 G 9 73° 17% - - 26° 73.3° 53.2° - - -
4/29 9:50am 286 5 G 8 72° 20% - - 29° 72.7° 53.2° - - -
4/29 9:40am 284 3 G 6 72° 24% - - 33° 72.5° 53.2° - - -
4/29 9:30am 283 3 G 6 70° 33% - - 40° 70.9° 53.2° - - -
4/29 9:20am 276 3 G 5 69° 34% - - 40° 69.9° 53.2° - - -
4/29 9:10am 277 3 G 6 69° 36% - - 40° 69.5° 53.2° - - -
4/29 9:00am 262 3 G 6 69° 42% - - 44° 69.5° 53.2° - - -
4/29 8:50am 222 3 G 5 68° 42% - - 44° 69° 53.2° - - -
4/29 8:40am 285 3 G 5 68° 39% - - 42° 68.5° 53.2° - - -
4/29 8:30am 289 2 G 4 67° 39% - - 42° 67.9° 53.2° - - -
4/29 8:20am 35 1 G 3 66° 41% - - 42° 67.5° 53.2° - - -
4/29 8:10am 55 1 G 3 65° 44% - - 43° 66.3° 53.2° - - -
4/29 8:00am 68 2 G 3 63° 48% - - 43° 64.1° 53.2° - - -
4/29 7:50am 67 2 G 4 62° 51% - - 44° 62.9° 53.2° - - -
4/29 7:40am 72 3 G 5 60° 56% - - 44° 62.9° 53.2° - - -
4/29 7:30am 63 4 G 6 59° 56% - - 43° 62.9° 53.2° - - -
4/29 7:20am 58 3 G 5 58° 58% - - 43° 62.9° 53.2° - - -
4/29 7:10am 81 3 G 5 56° 61% - - 43° 62.9° 53.2° - - -
4/29 7:00am 70 4 G 5 55° 64% - - 44° 62.9° 53.2° - - -
4/29 6:50am 68 3 G 5 54° 67% - - 44° 62.9° 53.2° - - -
4/29 6:40am 67 4 G 6 54° 67% - - 44° 62.9° 53.2° - - -
4/29 6:30am 48 2 G 5 54° 68% - - 44° 62.9° 53.2° - - -
4/29 6:20am 61 3 G 4 54° 72% - - 45° 62.9° 53.2° - - -
4/29 6:10am 53 2 G 3 54° 72% - - 45° 62.9° 53.4° - - -
4/29 6:00am 72 2 G 5 54° 71% - - 45° 62.9° 53.6° - - -
4/29 5:50am 62 4 G 5 54° 71% - - 45° 62.9° 53.9° - - -
4/29 5:40am 54 2 G 4 54° 73% - - 46° 62.9° 53.9° - - -
4/29 5:30am 83 3 G 4 55° 74% - - 46° 62.9° 54.1° - - -
4/29 5:20am 67 3 G 5 55° 71% - - 46° 62.9° 54.8° - - -
4/29 5:10am 51 3 G 5 55° 72% - - 47° 62.9° 55° - - -
4/29 5:00am 42 2 G 3 56° 72% - - 47° 62.9° 55.2° - - -
4/29 4:50am 106 2 G 3 56° 71% - - 47° 62.9° 55.4° - - -
4/29 4:40am 24 1 G 2 56° 70% - - 46° 62.9° 55.4° - - -
4/29 4:30am 67 1 G 4 56° 68% - - 46° 62.9° 55.7° - - -
4/29 4:20am 52 2 G 4 56° 69% - - 46° 62.9° 55.9° - - -
4/29 4:10am 42 2 G 4 57° 72% - - 48° 62.9° 56.1° - - -
4/29 4:00am 61 3 G 6 57° 73% - - 48° 62.9° 56.4° - - -
4/29 3:50am 78 4 G 6 57° 76% - - 49° 62.9° 56.6° - - -
4/29 3:40am 84 2 G 3 57° 77% - - 50° 62.9° 56.6° - - -
4/29 3:30am 80 3 G 5 57° 78% - - 50° 62.9° 56.7° - - -
4/29 3:20am 63 2 G 4 58° 78% - - 51° 62.9° 57° - - -
4/29 3:10am 68 2 G 3 58° 78% - - 51° 62.9° 57.6° - - -
4/29 3:00am 80 1 G 3 58° 78% - - 51° 62.9° 57.6° - - -
4/29 2:50am 133 2 G 4 59° 79% - - 52° 62.9° 57.6° - - -
4/29 2:40am 244 2 G 3 58° 79% - - 52° 62.9° 57.6° - - -
4/29 2:30am 358 2 G 4 58° 78% - - 51° 62.9° 57.6° - - -
4/29 2:20am 21 2 G 4 58° 77% - - 51° 62.9° 57.8° - - -
4/29 2:10am 70 1 G 2 58° 77% - - 51° 62.9° 58.1° - - -
4/29 2:00am 65 2 G 3 59° 78% - - 52° 62.9° 58.3° - - -
4/29 1:50am 91 2 G 4 59° 78% - - 52° 62.9° 58.4° - - -
4/29 1:40am 104 2 G 5 59° 78% - - 52° 62.9° 58.4° - - -
4/29 1:30am 122 3 G 5 59° 78% - - 53° 62.9° 59° - - -
4/29 1:20am 101 1 G 3 60° 79% - - 53° 62.9° 59.3° - - -
4/29 1:10am 52 2 G 3 60° 78% - - 53° 62.9° 59.6° - - -
4/29 1:00am 56 1 G 2 60° 77% - - 53° 62.9° 59.6° - - -
4/29 12:50am 60 2 G 3 60° 77% - - 53° 62.9° 59.8° - - -
4/29 12:40am 58 2 G 3 60° 77% - - 53° 62.9° 60° - - -
4/29 12:30am 76 3 G 4 61° 78% - - 54° 62.9° 60.4° - - -
4/29 12:20am 77 2 G 4 61° 79% - - 55° 62.9° 61° - - -
4/29 12:10am 29 2 G 4 62° 82% - - 57° 62.9° 61.7° - - -
4/29 12:00am 86 1 G 2 62° 82% - - 57° 72.4° 55.8° - - -
4/28 11:50pm 296 1 G 3 62° 81% - - 57° 72.4° 55.8° - - -
4/28 11:40pm 266 3 G 5 63° 81% - - 57° 72.4° 55.8° - - -
4/28 11:30pm 233 2 G 5 63° 80% - - 57° 72.4° 55.8° - - -
4/28 11:20pm 192 1 G 3 63° 79% - - 56° 72.4° 55.8° - - -
4/28 11:10pm 187 1 G 2 63° 79% - - 56° 72.4° 55.8° - - -
4/28 11:00pm 212 2 G 3 63° 78% - - 56° 72.4° 55.8° - - -
4/28 10:50pm 208 2 G 4 63° 76% - - 56° 72.4° 55.8° - - -
4/28 10:40pm 186 2 G 4 63° 76% - - 55° 72.4° 55.8° - - -
4/28 10:30pm 221 2 G 4 63° 75% - - 55° 72.4° 55.8° - - -
4/28 10:20pm 223 2 G 5 64° 74% - - 55° 72.4° 55.8° - - -
4/28 10:10pm 204 1 G 4 64° 71% - - 55° 72.4° 55.8° - - -
4/28 10:00pm 198 2 G 5 64° 71% - - 55° 72.4° 55.8° - - -
4/28 9:50pm 202 2 G 3 64° 72% - - 55° 72.4° 55.8° - - -
4/28 9:40pm 182 2 G 4 64° 71% - - 55° 72.4° 55.8° - - -
4/28 9:30pm 148 2 G 3 64° 72% - - 55° 72.4° 55.8° - - -
4/28 9:20pm 171 2 G 5 64° 73% - - 55° 72.4° 55.8° - - -
4/28 9:10pm 214 2 G 3 64° 73% - - 55° 72.4° 55.8° - - -
4/28 9:00pm 188 1 G 3 64° 74% - - 55° 72.4° 55.8° - - -
4/28 8:50pm 225 2 G 4 64° 74% - - 56° 72.4° 55.8° - - -
4/28 8:40pm 222 1 G 4 65° 72% - - 55° 72.4° 55.8° - - -
4/28 8:30pm 165 3 G 6 65° 71% - - 55° 72.4° 55.8° - - -
4/28 8:20pm 212 3 G 6 65° 71% - - 55° 72.4° 55.8° - - -
4/28 8:10pm 251 4 G 6 65° 70% - - 55° 72.4° 55.8° - - -
4/28 8:00pm 240 4 G 6 65° 69% - - 54° 72.4° 55.8° - - -
4/28 7:50pm 246 4 G 6 65° 68% - - 54° 72.4° 55.8° - - -
4/28 7:40pm 248 4 G 8 65° 69% - - 54° 72.4° 55.8° - - -
4/28 7:30pm 235 4 G 7 65° 68% - - 55° 72.4° 55.8° - - -
4/28 7:20pm 239 4 G 6 66° 66% - - 54° 72.4° 55.8° - - -
4/28 7:10pm 217 3 G 5 66° 66% - - 54° 72.4° 55.8° - - -
4/28 7:00pm 232 4 G 7 66° 66% - - 55° 72.4° 55.8° - - -
4/28 6:50pm 241 4 G 7 67° 65% - - 55° 72.4° 55.8° - - -
4/28 6:40pm 254 5 G 9 67° 63% - - 54° 72.4° 55.8° - - -
4/28 6:30pm 271 6 G 9 68° 60% - - 53° 72.4° 55.8° - - -
4/28 6:20pm 257 6 G 10 68° 61% - - 54° 72.4° 55.8° - - -
4/28 6:10pm 256 5 G 9 68° 61% - - 54° 72.4° 55.8° - - -
4/28 6:00pm 250 5 G 10 67° 63% - - 54° 72.4° 55.8° - - -